AirNav   Bose ProFlight Series 2 Headset
 
 890 users online  

5PS0 Beau Street Heliport
Washington, Pennsylvania, USA

GOING TO WASHINGTON?


FAA INFORMATION EFFECTIVE 30 JANUARY 2020

Location

FAA Identifier: 5PS0
Lat/Long: 40-10-45.2560N 080-13-02.2130W
40-10.754267N 080-13.036883W
40.1792378,-80.2172814
(estimated)
Elevation: 1243 ft. / 379 m (estimated)
Variation: 07W (1985)
From city: 2 miles SW of WASHINGTON, PA
Time zone: UTC -5 (UTC -4 during Daylight Saving Time)
Zip code: 15301

Heliport Operations

Heliport use: Private use, PERSONAL USE.
Activation date: 06/1987
Control tower: no
ARTCC: CLEVELAND CENTER
FSS: ALTOONA FLIGHT SERVICE STATION
Attendance: UNATNDD
Segmented circle: no

Heliport Communications

WX AWOS-3PT at AFJ (4 nm SW): 119.175 (724-228-3529)
WX ASOS at AGC (17 nm NE): 120.55 (412-466-8968)
WX AWOS-3 at FWQ (18 nm E): 118.475 (724-379-5815)
WX ASOS at PIT (19 nm N): PHONE 412-472-0145
WX AWOS-A at 42PN (19 nm NE): PHONE 412-442-2213
WX ASOS at HLG (20 nm W): 127.375 (304-277-3504)

Nearby radio navigation aids

VOR radial/distance  VOR name  Freq  Var
AGCr243/10.0ALLEGHENY VOR/DME110.0009W
HLGr114/16.8WHEELING VOR/DME112.2007W
AIRr078/29.2BELLAIRE VOR/DME117.1007W
EWCr188/38.7ELLWOOD CITY VOR/DME115.8008W

 
NDB name  Hdg/Dist  Freq  Var  ID
CADIZ102/36.623907WCFX -.-. ..-. -..-

Heliport Services

Runway Information

Helipad H1

Dimensions: 60 x 60 ft. / 18 x 18 m
Surface: concrete
Traffic pattern: leftleft

Heliport Ownership and Management from official FAA records

Ownership: Privately-owned
Owner: ANGELO FALCONI
928 EAST BEAU ST
WASHINGTON, PA 15301
Phone 412-229-7778
Manager: EDWARD C. MORASCYZK
382 WEST CHESTNUT ST
WASHINGTON, PA 15301
Phone 724-225-3355

Heliport Operational Statistics

Aircraft based on the field: 1
Helicopters: 1
    

Additional Remarks

FOR CD CTC PITTSBURGH APCH AT 412-472-5591

Instrument Procedures

There are no published instrument procedures at 5PS0.

Some nearby airports with instrument procedures:

KAFJ - Washington County Airport (4 nm SW)
G05 - Finleyville Airpark (10 nm NE)
KAGC - Allegheny County Airport (17 nm NE)
KWAY - Greene County Airport (17 nm S)
KFWQ - Rostraver Airport (18 nm E)
KPIT - Pittsburgh International Airport (19 nm N)
KHLG - Wheeling Ohio County Airport (20 nm W)
 
Loc | Ops | Rwys | IFR | FBO | Links
Com | Nav | Svcs | Stats | Notes
Area around 5PS0 (Beau Street Heliport)
 
Road maps at: MapQuest Bing Google
 
Aerial photo
No photo
 
Sectional chart

 
Airport distance calculator
Flying to Beau Street Heliport? Find the distance to fly.

From to 5PS0

Sunrise and sunset
Times for 25-Feb-2020
 Local
(UTC-5)
 Zulu
(UTC)
Morning civil twilight06:3411:34
Sunrise07:0112:01
Sunset18:0723:07
Evening civil twilight18:3423:34

Current date and time
Zulu (UTC)  26-Feb-2020 04:56:34
Local (UTC-5)  25-Feb-2020 23:56:34
 
METAR
KAFJ 
4nm SW 
260420Z AUTO 19003KT 1/4SM FG OVC004 06/06 A2984 RMK AO2 PWINO
KAGC 
17nm NE 
260438Z AUTO 15003KT 1/2SM R28/2000V5500FT FG OVC002 07/06 A2981 RMK AO2 T00670061
KP53 
18nm E 
260356Z AUTO 02012KT M03/M07 A3025 RMK AO1 SLP252 T10281067
KPIT 
19nm N 
260351Z 00000KT 4SM BR OVC004 07/06 A2981 RMK AO2 DZE48 SLP107 P0000 T00670056
KHLG 
20nm W 
260422Z AUTO 00000KT 1/4SM R03/1800VP6000FT -RA FG VV005 07/06 A2982 RMK AO2 RAB09 P0000 T00670056
TAF
KAGC 
17nm NE 
260404Z 2604/2624 03003KT 2SM BR OVC004 TEMPO 2605/2608 1/2SM FG VV002 FM261400 23003KT P6SM OVC010 FM261900 21005KT 5SM -RA OVC010
KPIT 
19nm N 
260255Z 2603/2706 06003KT 3SM -RA BR BKN005 FM260400 00000KT 6SM BR OVC007 FM261400 23003KT P6SM OVC010 FM261900 21005KT 5SM -RA OVC010
KHLG 
20nm W 
260403Z 2604/2624 00000KT 2SM BR OVC005 TEMPO 2604/2607 1/4SM FG VV002 FM261400 23003KT P6SM OVC010 FM261900 21005KT 5SM -RA OVC010
NOTAMs
Click for the latest NOTAMs
NOTAMs are issued by the DoD/FAA and will open in a separate window not controlled by AirNav.

 

 
 

Would you like to see your business listed on this page?

 If your business provides an interesting product or service to pilots, flight crews, aircraft, or users of the Beau Street Heliport, you should consider listing it here.  To start the listing process, click on the button below
 
Add a business
 

Other Pages about Beau Street Heliport

Update a link
 
Copyright © AirNav, LLC. All rights reserved. Privacy Policy  Contact